Pagina principale
METAR-TAF:

METAR-TAF

Aeroporti :

Entrammes

Laval, Francia

latitudine: 48-01-56N, longitudine: 000-44-34W, altezza: 101 m

Osservazione

Il bollettino è stato emesso 16 minuti fa, alle 03:30 UTC
Vento 15 kt da nord/nord-est con raffiche fino a 26 kt
Temperature 1°C
Umidità 55%
Pressione 1029 hPa
Visibilità 10 km o più
nessuna nube inferiore a 1500 m e nessun cumulonembo

METAR: LFOV 300330Z AUTO 02015G26KT CAVOK 01/M07 Q1029

Ora: 05:46 (03:46 UTC)


TAF: mancante

Osservazioni e previsioni meteorologiche di più di 4000 aeroporti (messaggi METAR e TAF).

Le stazioni disponibili sono rappresentate dai dischi gialli e rossi sulla carta.

Puntare il mouse per vedere il nome della stazione.

Clicca sopra per visualizzare le osservazioni e previsioni meteorologiche.

Per cambiare la mappa : fare clic sui pulsanti verdi con una croce nera per ingrandire, il pulsante verde con un trattino per diminuire, o sulla freccia verde per le mappe adiacenti.


METAR-TAF: